Geervliet — PCLI — position and weather

sailwx.info

Track history (hours):
 
Tides and Currents Weather Stations Pressure Air Temp Water Temp Dewpoint Dewpoint Depression Visibility Wind Speed Wind Dir Waves Ship Positions

Geervliet

Last reported at 2016-Jun-26 17:31 UTC. Time now 2016-Jun-27 13:11 UTC.
Position N 39°08' W 009°50'.

Length 86 m; draft 4.9 m.

Type: Ship. MMSI: 246803000.

Date/timePositionNaut miles runAvg speedWind from/ knotsBaromVisibWave heightAir tempDewpointWater temp
2016-Jun-26 17:31N 39°08' W 009°50'7 7.6
2016-Jun-26 16:33N 39°01' W 009°50'8 7.8
2016-Jun-26 15:32N 38°53' W 009°50'8 8.2
2016-Jun-26 14:33N 38°45' W 009°50'8 8.1
2016-Jun-26 13:32N 38°37' W 009°48'8 7.9
2016-Jun-26 12:33N 38°29' W 009°46'8 7.8
2016-Jun-26 11:32N 38°21' W 009°44'8 7.8
2016-Jun-26 10:33N 38°14' W 009°42'8 8.1
2016-Jun-26 09:33N 38°06' W 009°39'8 8.2
2016-Jun-26 08:33N 37°58' W 009°37'8 7.9
2016-Jun-26 07:33N 37°51' W 009°35'8 7.6
2016-Jun-26 06:33N 37°43' W 009°33'7 7.2
2016-Jun-26 05:32N 37°36' W 009°31'25 7.8
2016-Jun-26 02:17N 37°11' W 009°23'33 6.9
2016-Jun-25 21:30N 36°44' W 009°01'28 9.2
2016-Jun-25 18:31N 36°47' W 008°27'10 9.9
2016-Jun-25 17:33N 36°50' W 008°16'7 7.5
2016-Jun-25 16:33N 36°49' W 008°07'10 9.5
2016-Jun-25 15:34N 36°40' W 008°04'9 9.1
2016-Jun-25 14:33N 36°33' W 007°57'8 8.5
2016-Jun-25 13:33N 36°27' W 007°49'58 9.7
2016-Jun-25 07:33N 36°10' W 006°40'5410.8
2016-Jun-25 02:33N 35°58' W 005°35'9 9.1
2016-Jun-25 01:33N 35°60' W 005°24'7 7.5
2016-Jun-25 00:34N 35°54' W 005°19'1 0.6
2016-Jun-24 23:33N 35°54' W 005°19'0 0.0
2016-Jun-24 22:33N 35°54' W 005°19'0 0.0
2016-Jun-24 21:32N 35°54' W 005°19'0 0.2
2016-Jun-24 20:34N 35°54' W 005°19'1 1.4
2016-Jun-24 19:34N 35°55' W 005°18'0 0.3
2016-Jun-24 18:34N 35°55' W 005°18'1 1.3
2016-Jun-24 17:34N 35°55' W 005°20'0 0.4
2016-Jun-24 16:31N 35°55' W 005°20'0 0.0
2016-Jun-24 15:31N 35°55' W 005°20'0 0.0
2016-Jun-24 14:31N 35°55' W 005°20'2 2.3
2016-Jun-24 13:33N 35°55' W 005°17'20410.2
2016-Jun-23 17:30N 36°16' W 001°06'1510.7
2016-Jun-23 16:07N 36°19' W 000°48'610.3
2016-Jun-23 15:33N 36°21' W 000°41'1010.0
2016-Jun-23 14:30N 36°24' W 000°28'1010.3
2016-Jun-23 13:33N 36°26' W 000°17'1110.4
2016-Jun-23 12:31N 36°29' W 000°04'1010.2
2016-Jun-23 11:33N 36°32' E 000°08'1010.5
2016-Jun-23 10:33N 36°35' E 000°21'1010.3
2016-Jun-23 09:33N 36°37' E 000°33'1110.1
2016-Jun-23 08:30N 36°39' E 000°46'1010.2
2016-Jun-23 07:33N 36°42' E 000°58'2010.1
2016-Jun-23 05:33N 36°45' E 001°23'1310.2
2016-Jun-23 04:19N 36°48' E 001°38'810.2
2016-Jun-23 03:31N 36°50' E 001°48'1110.1
2016-Jun-23 02:25N 36°51' E 002°02'910.0
2016-Jun-23 01:33N 36°53' E 002°12'10 9.9
2016-Jun-23 00:32N 36°55' E 002°24'1010.1
2016-Jun-22 23:33N 36°57' E 002°37'1111.0
2016-Jun-22 22:33N 36°59' E 002°50'2411.3
2016-Jun-22 20:26N 37°02' E 003°20'1210.8
2016-Jun-22 19:22N 37°04' E 003°34'3010.8
2016-Jun-22 16:33N 37°08' E 004°12'1110.8
2016-Jun-22 15:33N 37°10' E 004°25'8010.8
2016-Jun-22 08:09N 37°20' E 006°05'710.2
2016-Jun-22 07:28N 37°21' E 006°13'34110.0
2016-Jun-20 21:23N 36°56' E 013°20'8 9.7
2016-Jun-20 20:33N 36°54' E 013°29'9 9.3
2016-Jun-20 19:33N 36°52' E 013°41'9 8.9
2016-Jun-20 18:33N 36°50' E 013°52'9 8.8
2016-Jun-20 17:33N 36°47' E 014°02'9 8.9
2016-Jun-20 16:33N 36°45' E 014°13'9 9.0
2016-Jun-20 15:33N 36°42' E 014°23'9 9.2
2016-Jun-20 14:33N 36°40' E 014°35'47810.6
2016-Jun-18 17:32N 36°01' E 024°26'  
Track history (hours):
 
Tides and Currents Weather Stations Pressure Air Temp Water Temp Dewpoint Dewpoint Depression Visibility Wind Speed Wind Dir Waves Ship Positions

Geervliet

Last reported at 2016-Jun-26 17:31 UTC. Time now 2016-Jun-27 13:11 UTC.
Position N 39°08' W 009°50'.

Length 86 m; draft 4.9 m.

Type: Ship. MMSI: 246803000.

Date/timePositionNaut miles runAvg speedWind from/ knotsBaromVisibWave heightAir tempDewpointWater temp
2016-Jun-26 17:31N 39°08' W 009°50'7 7.6
2016-Jun-26 16:33N 39°01' W 009°50'8 7.8
2016-Jun-26 15:32N 38°53' W 009°50'8 8.2
2016-Jun-26 14:33N 38°45' W 009°50'8 8.1
2016-Jun-26 13:32N 38°37' W 009°48'8 7.9
2016-Jun-26 12:33N 38°29' W 009°46'8 7.8
2016-Jun-26 11:32N 38°21' W 009°44'8 7.8
2016-Jun-26 10:33N 38°14' W 009°42'8 8.1
2016-Jun-26 09:33N 38°06' W 009°39'8 8.2
2016-Jun-26 08:33N 37°58' W 009°37'8 7.9
2016-Jun-26 07:33N 37°51' W 009°35'8 7.6
2016-Jun-26 06:33N 37°43' W 009°33'7 7.2
2016-Jun-26 05:32N 37°36' W 009°31'25 7.8
2016-Jun-26 02:17N 37°11' W 009°23'33 6.9
2016-Jun-25 21:30N 36°44' W 009°01'28 9.2
2016-Jun-25 18:31N 36°47' W 008°27'10 9.9
2016-Jun-25 17:33N 36°50' W 008°16'7 7.5
2016-Jun-25 16:33N 36°49' W 008°07'10 9.5
2016-Jun-25 15:34N 36°40' W 008°04'9 9.1
2016-Jun-25 14:33N 36°33' W 007°57'8 8.5
2016-Jun-25 13:33N 36°27' W 007°49'58 9.7
2016-Jun-25 07:33N 36°10' W 006°40'5410.8
2016-Jun-25 02:33N 35°58' W 005°35'9 9.1
2016-Jun-25 01:33N 35°60' W 005°24'7 7.5
2016-Jun-25 00:34N 35°54' W 005°19'1 0.6
2016-Jun-24 23:33N 35°54' W 005°19'0 0.0
2016-Jun-24 22:33N 35°54' W 005°19'0 0.0
2016-Jun-24 21:32N 35°54' W 005°19'0 0.2
2016-Jun-24 20:34N 35°54' W 005°19'1 1.4
2016-Jun-24 19:34N 35°55' W 005°18'0 0.3
2016-Jun-24 18:34N 35°55' W 005°18'1 1.3
2016-Jun-24 17:34N 35°55' W 005°20'0 0.4
2016-Jun-24 16:31N 35°55' W 005°20'0 0.0
2016-Jun-24 15:31N 35°55' W 005°20'0 0.0
2016-Jun-24 14:31N 35°55' W 005°20'2 2.3
2016-Jun-24 13:33N 35°55' W 005°17'20410.2
2016-Jun-23 17:30N 36°16' W 001°06'1510.7
2016-Jun-23 16:07N 36°19' W 000°48'610.3
2016-Jun-23 15:33N 36°21' W 000°41'1010.0
2016-Jun-23 14:30N 36°24' W 000°28'1010.3
2016-Jun-23 13:33N 36°26' W 000°17'1110.4
2016-Jun-23 12:31N 36°29' W 000°04'1010.2
2016-Jun-23 11:33N 36°32' E 000°08'1010.5
2016-Jun-23 10:33N 36°35' E 000°21'1010.3
2016-Jun-23 09:33N 36°37' E 000°33'1110.1
2016-Jun-23 08:30N 36°39' E 000°46'1010.2
2016-Jun-23 07:33N 36°42' E 000°58'2010.1
2016-Jun-23 05:33N 36°45' E 001°23'1310.2
2016-Jun-23 04:19N 36°48' E 001°38'810.2
2016-Jun-23 03:31N 36°50' E 001°48'1110.1
2016-Jun-23 02:25N 36°51' E 002°02'910.0
2016-Jun-23 01:33N 36°53' E 002°12'10 9.9
2016-Jun-23 00:32N 36°55' E 002°24'1010.1
2016-Jun-22 23:33N 36°57' E 002°37'1111.0
2016-Jun-22 22:33N 36°59' E 002°50'2411.3
2016-Jun-22 20:26N 37°02' E 003°20'1210.8
2016-Jun-22 19:22N 37°04' E 003°34'3010.8
2016-Jun-22 16:33N 37°08' E 004°12'1110.8
2016-Jun-22 15:33N 37°10' E 004°25'8010.8
2016-Jun-22 08:09N 37°20' E 006°05'710.2
2016-Jun-22 07:28N 37°21' E 006°13'34110.0
2016-Jun-20 21:23N 36°56' E 013°20'8 9.7
2016-Jun-20 20:33N 36°54' E 013°29'9 9.3
2016-Jun-20 19:33N 36°52' E 013°41'9 8.9
2016-Jun-20 18:33N 36°50' E 013°52'9 8.8
2016-Jun-20 17:33N 36°47' E 014°02'9 8.9
2016-Jun-20 16:33N 36°45' E 014°13'9 9.0
2016-Jun-20 15:33N 36°42' E 014°23'9 9.2
2016-Jun-20 14:33N 36°40' E 014°35'47810.6
2016-Jun-18 17:32N 36°01' E 024°26'  

Dump ship's entire track history